sensor_id;sensor_type;location;lat;lon;timestamp;pressure;altitude;pressure_sealevel;temperature;humidity
72409;BME280;60402;48.082;11.628;2023-05-23T00:01:10;95042.03;;;16.13;97.31
72409;BME280;60402;48.082;11.628;2023-05-23T00:03:56;95038.22;;;16.01;98.11
72409;BME280;60402;48.082;11.628;2023-05-23T00:06:42;95045.59;;;16.07;98.72
72409;BME280;60402;48.082;11.628;2023-05-23T00:09:31;95022.78;;;15.93;97.59
72409;BME280;60402;48.082;11.628;2023-05-23T00:12:16;95039.00;;;15.87;99.31
72409;BME280;60402;48.082;11.628;2023-05-23T00:15:02;95039.38;;;15.79;99.82
72409;BME280;60402;48.082;11.628;2023-05-23T00:17:48;95056.00;;;15.81;99.75
72409;BME280;60402;48.082;11.628;2023-05-23T00:20:39;95044.97;;;15.74;99.22
72409;BME280;60402;48.082;11.628;2023-05-23T00:23:25;95044.88;;;15.68;100.00
72409;BME280;60402;48.082;11.628;2023-05-23T00:26:10;95036.34;;;15.68;100.00
72409;BME280;60402;48.082;11.628;2023-05-23T00:28:56;95042.59;;;15.57;100.00
72409;BME280;60402;48.082;11.628;2023-05-23T00:31:43;95052.28;;;15.51;100.00
72409;BME280;60402;48.082;11.628;2023-05-23T00:34:31;95054.88;;;15.64;100.00
72409;BME280;60402;48.082;11.628;2023-05-23T00:37:17;95056.56;;;15.70;99.69
72409;BME280;60402;48.082;11.628;2023-05-23T00:40:03;95050.50;;;15.77;99.41
72409;BME280;60402;48.082;11.628;2023-05-23T00:42:48;95055.59;;;15.73;99.28
72409;BME280;60402;48.082;11.628;2023-05-23T00:45:34;95054.91;;;15.78;98.34
72409;BME280;60402;48.082;11.628;2023-05-23T00:48:20;95044.97;;;15.74;98.96
72409;BME280;60402;48.082;11.628;2023-05-23T00:51:06;95043.69;;;15.75;98.22
72409;BME280;60402;48.082;11.628;2023-05-23T00:53:52;95049.63;;;15.86;97.32
72409;BME280;60402;48.082;11.628;2023-05-23T00:56:38;95048.53;;;15.83;97.27
72409;BME280;60402;48.082;11.628;2023-05-23T00:59:25;95035.25;;;15.80;96.70
72409;BME280;60402;48.082;11.628;2023-05-23T01:02:10;95038.22;;;15.86;96.85
72409;BME280;60402;48.082;11.628;2023-05-23T01:04:57;95033.09;;;15.75;97.19
72409;BME280;60402;48.082;11.628;2023-05-23T01:07:43;95059.16;;;15.98;96.53
72409;BME280;60402;48.082;11.628;2023-05-23T01:10:29;95058.06;;;15.95;97.02
72409;BME280;60402;48.082;11.628;2023-05-23T01:13:38;95058.66;;;15.99;96.40
72409;BME280;60402;48.082;11.628;2023-05-23T01:16:48;95066.41;;;15.99;96.59
72409;BME280;60402;48.082;11.628;2023-05-23T01:22:59;95056.78;;;15.96;96.23
72409;BME280;60402;48.082;11.628;2023-05-23T01:28:55;95069.94;;;16.08;95.72
72409;BME280;60402;48.082;11.628;2023-05-23T01:31:45;95073.91;;;16.11;95.26
72409;BME280;60402;48.082;11.628;2023-05-23T01:34:32;95068.09;;;16.05;95.91
72409;BME280;60402;48.082;11.628;2023-05-23T01:37:19;95062.78;;;15.98;96.25
72409;BME280;60402;48.082;11.628;2023-05-23T01:40:05;95056.88;;;16.02;95.98
72409;BME280;60402;48.082;11.628;2023-05-23T01:42:53;95070.06;;;16.14;95.55
72409;BME280;60402;48.082;11.628;2023-05-23T01:45:42;95062.41;;;16.05;95.50
72409;BME280;60402;48.082;11.628;2023-05-23T01:48:28;95063.28;;;16.12;95.55
72409;BME280;60402;48.082;11.628;2023-05-23T01:51:14;95063.47;;;16.08;95.77
72409;BME280;60402;48.082;11.628;2023-05-23T01:54:00;95061.72;;;16.10;95.58
72409;BME280;60402;48.082;11.628;2023-05-23T01:56:47;95071.72;;;16.21;94.86
72409;BME280;60402;48.082;11.628;2023-05-23T01:59:33;95073.50;;;16.18;95.37
72409;BME280;60402;48.082;11.628;2023-05-23T02:02:18;95098.56;;;16.29;94.98
72409;BME280;60402;48.082;11.628;2023-05-23T02:05:04;95082.34;;;16.20;95.66
72409;BME280;60402;48.082;11.628;2023-05-23T02:07:50;95072.41;;;16.30;94.83
72409;BME280;60402;48.082;11.628;2023-05-23T02:10:36;95091.69;;;16.35;95.18
72409;BME280;60402;48.082;11.628;2023-05-23T02:13:21;95089.44;;;16.25;95.24
72409;BME280;60402;48.082;11.628;2023-05-23T02:16:07;95089.22;;;16.14;95.84
72409;BME280;60402;48.082;11.628;2023-05-23T02:18:53;95094.53;;;16.21;96.32
72409;BME280;60402;48.082;11.628;2023-05-23T02:21:40;95085.97;;;16.06;96.62
72409;BME280;60402;48.082;11.628;2023-05-23T02:24:26;95081.75;;;16.16;95.79
72409;BME280;60402;48.082;11.628;2023-05-23T02:27:12;95087.88;;;16.24;95.25
72409;BME280;60402;48.082;11.628;2023-05-23T02:29:57;95085.69;;;16.19;95.18
72409;BME280;60402;48.082;11.628;2023-05-23T02:32:43;95088.84;;;16.21;95.13
72409;BME280;60402;48.082;11.628;2023-05-23T02:35:28;95087.38;;;16.10;95.56
72409;BME280;60402;48.082;11.628;2023-05-23T02:38:14;95084.09;;;16.18;95.55
72409;BME280;60402;48.082;11.628;2023-05-23T02:41:00;95105.25;;;16.26;95.44
72409;BME280;60402;48.082;11.628;2023-05-23T02:43:46;95094.25;;;16.19;95.57
72409;BME280;60402;48.082;11.628;2023-05-23T02:46:31;95112.63;;;16.18;96.40
72409;BME280;60402;48.082;11.628;2023-05-23T02:49:17;95103.88;;;16.21;95.27
72409;BME280;60402;48.082;11.628;2023-05-23T02:52:03;95097.66;;;16.08;96.47
72409;BME280;60402;48.082;11.628;2023-05-23T02:54:48;95096.88;;;15.93;97.20
72409;BME280;60402;48.082;11.628;2023-05-23T02:57:34;95085.56;;;15.83;97.48
72409;BME280;60402;48.082;11.628;2023-05-23T03:00:20;95117.34;;;16.06;96.82
72409;BME280;60402;48.082;11.628;2023-05-23T03:03:06;95098.84;;;15.87;97.24
72409;BME280;60402;48.082;11.628;2023-05-23T03:05:51;95101.38;;;15.84;97.50
72409;BME280;60402;48.082;11.628;2023-05-23T03:08:38;95105.69;;;15.80;98.57
72409;BME280;60402;48.082;11.628;2023-05-23T03:11:23;95108.75;;;15.76;98.93
72409;BME280;60402;48.082;11.628;2023-05-23T03:14:09;95097.03;;;15.74;98.93
72409;BME280;60402;48.082;11.628;2023-05-23T03:16:55;95113.38;;;15.89;98.24
72409;BME280;60402;48.082;11.628;2023-05-23T03:19:41;95098.00;;;15.71;98.61
72409;BME280;60402;48.082;11.628;2023-05-23T03:22:26;95096.00;;;15.63;99.40
72409;BME280;60402;48.082;11.628;2023-05-23T03:25:14;95119.91;;;15.65;99.82
72409;BME280;60402;48.082;11.628;2023-05-23T03:28:00;95093.13;;;15.72;99.14
72409;BME280;60402;48.082;11.628;2023-05-23T03:30:46;95106.88;;;15.73;99.86
72409;BME280;60402;48.082;11.628;2023-05-23T03:33:32;95112.06;;;15.75;99.55
72409;BME280;60402;48.082;11.628;2023-05-23T03:36:17;95095.09;;;15.56;100.00
72409;BME280;60402;48.082;11.628;2023-05-23T03:39:03;95114.31;;;15.71;100.00
72409;BME280;60402;48.082;11.628;2023-05-23T03:41:50;95114.38;;;15.86;99.78
72409;BME280;60402;48.082;11.628;2023-05-23T03:44:36;95121.56;;;15.96;99.39
72409;BME280;60402;48.082;11.628;2023-05-23T03:47:22;95113.34;;;15.74;100.00
72409;BME280;60402;48.082;11.628;2023-05-23T03:50:09;95106.16;;;15.64;100.00
72409;BME280;60402;48.082;11.628;2023-05-23T03:52:54;95128.28;;;15.83;100.00
72409;BME280;60402;48.082;11.628;2023-05-23T03:55:41;95120.53;;;15.84;100.00
72409;BME280;60402;48.082;11.628;2023-05-23T03:58:26;95127.63;;;15.89;99.99
72409;BME280;60402;48.082;11.628;2023-05-23T04:01:12;95123.78;;;15.77;100.00
72409;BME280;60402;48.082;11.628;2023-05-23T04:03:57;95127.69;;;15.79;100.00
72409;BME280;60402;48.082;11.628;2023-05-23T04:06:44;95133.63;;;15.91;100.00
72409;BME280;60402;48.082;11.628;2023-05-23T04:09:30;95136.78;;;15.93;100.00
72409;BME280;60402;48.082;11.628;2023-05-23T04:12:15;95126.84;;;15.88;100.00
72409;BME280;60402;48.082;11.628;2023-05-23T04:15:02;95123.03;;;15.91;100.00
72409;BME280;60402;48.082;11.628;2023-05-23T04:17:48;95121.56;;;15.96;100.00
72409;BME280;60402;48.082;11.628;2023-05-23T04:20:34;95133.56;;;16.00;100.00
72409;BME280;60402;48.082;11.628;2023-05-23T04:23:19;95126.56;;;16.01;100.00
72409;BME280;60402;48.082;11.628;2023-05-23T04:26:05;95133.44;;;16.09;99.92
72409;BME280;60402;48.082;11.628;2023-05-23T04:28:50;95151.47;;;16.15;100.00
72409;BME280;60402;48.082;11.628;2023-05-23T04:31:38;95143.50;;;16.19;99.44
72409;BME280;60402;48.082;11.628;2023-05-23T04:34:24;95148.19;;;16.22;99.08
72409;BME280;60402;48.082;11.628;2023-05-23T04:37:10;95161.91;;;16.33;98.62
72409;BME280;60402;48.082;11.628;2023-05-23T04:39:56;95170.84;;;16.41;98.98
72409;BME280;60402;48.082;11.628;2023-05-23T04:42:43;95161.22;;;16.38;98.59
72409;BME280;60402;48.082;11.628;2023-05-23T04:45:30;95157.25;;;16.21;99.35
72409;BME280;60402;48.082;11.628;2023-05-23T04:48:16;95177.91;;;16.30;99.87
72409;BME280;60402;48.082;11.628;2023-05-23T04:51:02;95162.16;;;16.20;100.00
72409;BME280;60402;48.082;11.628;2023-05-23T04:53:50;95167.38;;;16.36;99.05
72409;BME280;60402;48.082;11.628;2023-05-23T04:56:36;95159.25;;;16.44;99.32
72409;BME280;60402;48.082;11.628;2023-05-23T04:59:22;95166.78;;;16.32;100.00
72409;BME280;60402;48.082;11.628;2023-05-23T05:02:08;95156.88;;;16.43;99.66
72409;BME280;60402;48.082;11.628;2023-05-23T05:04:54;95165.13;;;16.41;100.00
72409;BME280;60402;48.082;11.628;2023-05-23T05:07:39;95160.72;;;16.40;99.90
72409;BME280;60402;48.082;11.628;2023-05-23T05:10:25;95168.28;;;16.43;100.00
72409;BME280;60402;48.082;11.628;2023-05-23T05:13:11;95164.25;;;16.49;100.00
72409;BME280;60402;48.082;11.628;2023-05-23T05:15:57;95153.72;;;16.41;99.65
72409;BME280;60402;48.082;11.628;2023-05-23T05:18:43;95169.34;;;16.60;99.57
72409;BME280;60402;48.082;11.628;2023-05-23T05:21:28;95163.38;;;16.58;99.35
72409;BME280;60402;48.082;11.628;2023-05-23T05:24:14;95172.03;;;16.78;99.00
72409;BME280;60402;48.082;11.628;2023-05-23T05:27:00;95153.34;;;16.77;98.75
72409;BME280;60402;48.082;11.628;2023-05-23T05:29:46;95160.03;;;16.89;98.32
72409;BME280;60402;48.082;11.628;2023-05-23T05:32:32;95176.84;;;17.02;97.73
72409;BME280;60402;48.082;11.628;2023-05-23T05:35:18;95157.94;;;17.04;97.08
72409;BME280;60402;48.082;11.628;2023-05-23T05:38:03;95146.34;;;17.08;96.88
72409;BME280;60402;48.082;11.628;2023-05-23T05:40:49;95167.59;;;17.42;96.22
72409;BME280;60402;48.082;11.628;2023-05-23T05:43:34;95157.09;;;17.54;95.18
72409;BME280;60402;48.082;11.628;2023-05-23T05:46:20;95173.72;;;17.91;93.71
72409;BME280;60402;48.082;11.628;2023-05-23T05:49:06;95153.03;;;18.01;93.21
72409;BME280;60402;48.082;11.628;2023-05-23T05:51:51;95161.63;;;18.22;91.66
72409;BME280;60402;48.082;11.628;2023-05-23T05:54:37;95139.47;;;18.17;91.00
72409;BME280;60402;48.082;11.628;2023-05-23T05:57:23;95174.16;;;18.30;91.39
72409;BME280;60402;48.082;11.628;2023-05-23T06:00:10;95156.97;;;18.50;89.54
72409;BME280;60402;48.082;11.628;2023-05-23T06:02:57;95165.34;;;18.54;90.67
72409;BME280;60402;48.082;11.628;2023-05-23T06:05:43;95167.81;;;18.93;88.18
72409;BME280;60402;48.082;11.628;2023-05-23T06:08:28;95165.75;;;19.30;87.46
72409;BME280;60402;48.082;11.628;2023-05-23T06:11:14;95169.03;;;19.18;87.78
72409;BME280;60402;48.082;11.628;2023-05-23T06:14:00;95187.03;;;19.24;87.81
72409;BME280;60402;48.082;11.628;2023-05-23T06:16:45;95195.56;;;19.12;88.71
72409;BME280;60402;48.082;11.628;2023-05-23T06:19:31;95163.53;;;19.51;87.05
72409;BME280;60402;48.082;11.628;2023-05-23T06:22:17;95178.91;;;19.91;85.62
72409;BME280;60402;48.082;11.628;2023-05-23T06:25:03;95188.25;;;20.51;82.98
72409;BME280;60402;48.082;11.628;2023-05-23T06:27:49;95174.50;;;20.61;81.31
72409;BME280;60402;48.082;11.628;2023-05-23T06:30:35;95187.28;;;21.72;76.99
72409;BME280;60402;48.082;11.628;2023-05-23T06:33:22;95184.81;;;22.27;75.41
72409;BME280;60402;48.082;11.628;2023-05-23T06:36:08;95178.34;;;22.62;73.54
72409;BME280;60402;48.082;11.628;2023-05-23T06:38:54;95190.94;;;22.53;73.93
72409;BME280;60402;48.082;11.628;2023-05-23T06:41:39;95186.69;;;22.13;75.49
72409;BME280;60402;48.082;11.628;2023-05-23T06:44:25;95187.19;;;22.06;75.71
72409;BME280;60402;48.082;11.628;2023-05-23T06:47:11;95185.59;;;22.27;74.41
72409;BME280;60402;48.082;11.628;2023-05-23T06:49:56;95195.00;;;22.28;74.43
72409;BME280;60402;48.082;11.628;2023-05-23T06:52:42;95190.84;;;22.76;73.04
72409;BME280;60402;48.082;11.628;2023-05-23T06:55:28;95189.50;;;22.77;72.86
72409;BME280;60402;48.082;11.628;2023-05-23T06:58:14;95195.84;;;22.69;73.39
72409;BME280;60402;48.082;11.628;2023-05-23T07:01:00;95194.34;;;23.04;71.68
72409;BME280;60402;48.082;11.628;2023-05-23T07:03:46;95187.88;;;23.28;70.48
72409;BME280;60402;48.082;11.628;2023-05-23T07:06:31;95191.97;;;24.23;65.95
72409;BME280;60402;48.082;11.628;2023-05-23T07:09:17;95193.22;;;25.09;62.24
72409;BME280;60402;48.082;11.628;2023-05-23T07:12:03;95197.22;;;26.68;57.19
72409;BME280;60402;48.082;11.628;2023-05-23T07:14:48;95209.91;;;26.92;55.84
72409;BME280;60402;48.082;11.628;2023-05-23T07:17:34;95195.22;;;26.37;56.31
72409;BME280;60402;48.082;11.628;2023-05-23T07:20:20;95193.50;;;25.05;61.56
72409;BME280;60402;48.082;11.628;2023-05-23T07:23:06;95152.28;;;24.05;63.08
72409;BME280;60402;48.082;11.628;2023-05-23T07:25:52;95206.63;;;23.10;67.93
72409;BME280;60402;48.082;11.628;2023-05-23T07:28:37;95213.56;;;22.85;69.70
72409;BME280;60402;48.082;11.628;2023-05-23T07:31:23;95207.16;;;21.81;74.06
72409;BME280;60402;48.082;11.628;2023-05-23T07:34:09;95215.78;;;21.81;74.23
72409;BME280;60402;48.082;11.628;2023-05-23T07:36:54;95219.97;;;21.63;75.96
72409;BME280;60402;48.082;11.628;2023-05-23T07:39:40;95207.22;;;21.36;76.63
72409;BME280;60402;48.082;11.628;2023-05-23T07:42:26;95209.72;;;20.67;79.84
72409;BME280;60402;48.082;11.628;2023-05-23T07:45:12;95210.28;;;20.82;79.08
72409;BME280;60402;48.082;11.628;2023-05-23T07:47:57;95224.38;;;20.86;78.96
72409;BME280;60402;48.082;11.628;2023-05-23T07:50:43;95219.66;;;20.83;79.95
72409;BME280;60402;48.082;11.628;2023-05-23T07:53:29;95215.53;;;21.12;78.94
72409;BME280;60402;48.082;11.628;2023-05-23T07:56:15;95210.84;;;21.09;77.16
72409;BME280;60402;48.082;11.628;2023-05-23T07:59:01;95223.88;;;21.21;77.77
72409;BME280;60402;48.082;11.628;2023-05-23T08:01:47;95222.75;;;22.25;73.75
72409;BME280;60402;48.082;11.628;2023-05-23T08:04:34;95206.59;;;22.69;72.15
72409;BME280;60402;48.082;11.628;2023-05-23T08:07:20;95219.88;;;22.31;73.60
72409;BME280;60402;48.082;11.628;2023-05-23T08:10:06;95221.06;;;22.52;72.78
72409;BME280;60402;48.082;11.628;2023-05-23T08:12:53;95230.22;;;22.56;72.94
72409;BME280;60402;48.082;11.628;2023-05-23T08:15:39;95221.50;;;22.04;73.90
72409;BME280;60402;48.082;11.628;2023-05-23T08:18:24;95229.13;;;21.84;75.93
72409;BME280;60402;48.082;11.628;2023-05-23T08:21:10;95234.13;;;21.50;76.54
72409;BME280;60402;48.082;11.628;2023-05-23T08:23:55;95228.06;;;21.03;77.95
72409;BME280;60402;48.082;11.628;2023-05-23T08:26:41;95239.81;;;21.11;78.21
72409;BME280;60402;48.082;11.628;2023-05-23T08:29:27;95245.63;;;21.50;77.28
72409;BME280;60402;48.082;11.628;2023-05-23T08:32:12;95236.72;;;21.65;75.42
72409;BME280;60402;48.082;11.628;2023-05-23T08:34:58;95241.69;;;21.53;76.23
72409;BME280;60402;48.082;11.628;2023-05-23T08:37:44;95251.34;;;21.67;75.98
72409;BME280;60402;48.082;11.628;2023-05-23T08:40:30;95228.09;;;21.59;75.45
72409;BME280;60402;48.082;11.628;2023-05-23T08:43:18;95239.59;;;21.48;76.82
72409;BME280;60402;48.082;11.628;2023-05-23T08:46:04;95239.34;;;21.35;77.52
72409;BME280;60402;48.082;11.628;2023-05-23T08:48:51;95246.63;;;21.19;78.74
72409;BME280;60402;48.082;11.628;2023-05-23T08:51:37;95242.69;;;21.05;79.53
72409;BME280;60402;48.082;11.628;2023-05-23T08:54:27;95263.03;;;20.96;79.76
72409;BME280;60402;48.082;11.628;2023-05-23T08:57:13;95278.72;;;21.01;79.09
72409;BME280;60402;48.082;11.628;2023-05-23T08:59:59;95263.00;;;20.79;79.65
72409;BME280;60402;48.082;11.628;2023-05-23T09:02:45;95261.56;;;20.47;81.27
72409;BME280;60402;48.082;11.628;2023-05-23T09:05:31;95242.84;;;20.57;80.86
72409;BME280;60402;48.082;11.628;2023-05-23T09:08:17;95239.78;;;20.88;78.34
72409;BME280;60402;48.082;11.628;2023-05-23T09:11:04;95242.38;;;20.81;79.59
72409;BME280;60402;48.082;11.628;2023-05-23T09:13:50;95255.75;;;21.06;77.21
72409;BME280;60402;48.082;11.628;2023-05-23T09:16:36;95242.94;;;20.90;77.89
72409;BME280;60402;48.082;11.628;2023-05-23T09:19:21;95251.50;;;20.74;79.38
72409;BME280;60402;48.082;11.628;2023-05-23T09:22:07;95255.41;;;20.71;79.44
72409;BME280;60402;48.082;11.628;2023-05-23T09:24:54;95263.03;;;20.85;79.75
72409;BME280;60402;48.082;11.628;2023-05-23T09:27:42;95264.88;;;21.05;78.43
72409;BME280;60402;48.082;11.628;2023-05-23T09:30:27;95261.78;;;21.25;77.47
72409;BME280;60402;48.082;11.628;2023-05-23T09:33:18;95256.34;;;21.38;77.13
72409;BME280;60402;48.082;11.628;2023-05-23T09:36:05;95279.06;;;21.76;76.02
72409;BME280;60402;48.082;11.628;2023-05-23T09:38:51;95267.28;;;21.90;75.46
72409;BME280;60402;48.082;11.628;2023-05-23T09:41:37;95268.59;;;21.73;75.25
72409;BME280;60402;48.082;11.628;2023-05-23T09:44:22;95253.16;;;21.92;75.48
72409;BME280;60402;48.082;11.628;2023-05-23T09:47:08;95256.94;;;22.51;71.98
72409;BME280;60402;48.082;11.628;2023-05-23T09:49:54;95250.75;;;22.30;72.80
72409;BME280;60402;48.082;11.628;2023-05-23T09:52:40;95254.69;;;22.22;72.86
72409;BME280;60402;48.082;11.628;2023-05-23T09:55:26;95260.97;;;22.14;74.22
72409;BME280;60402;48.082;11.628;2023-05-23T09:58:11;95257.84;;;22.07;74.36
72409;BME280;60402;48.082;11.628;2023-05-23T10:01:01;95260.97;;;22.20;73.49
72409;BME280;60402;48.082;11.628;2023-05-23T10:03:49;95259.41;;;22.13;73.31
72409;BME280;60402;48.082;11.628;2023-05-23T10:06:49;95262.56;;;21.99;73.40
72409;BME280;60402;48.082;11.628;2023-05-23T10:09:38;95264.94;;;21.83;74.55
72409;BME280;60402;48.082;11.628;2023-05-23T10:15:17;95246.38;;;21.73;75.03
72409;BME280;60402;48.082;11.628;2023-05-23T10:18:15;95241.16;;;21.43;74.58
72409;BME280;60402;48.082;11.628;2023-05-23T10:21:07;95250.25;;;22.09;74.79
72409;BME280;60402;48.082;11.628;2023-05-23T10:23:54;95245.03;;;22.02;72.93
72409;BME280;60402;48.082;11.628;2023-05-23T10:26:40;95259.78;;;22.57;71.92
72409;BME280;60402;48.082;11.628;2023-05-23T10:29:26;95249.72;;;22.05;74.04
72409;BME280;60402;48.082;11.628;2023-05-23T10:32:12;95240.81;;;22.20;72.63
72409;BME280;60402;48.082;11.628;2023-05-23T10:41:00;95253.94;;;21.93;73.22
72409;BME280;60402;48.082;11.628;2023-05-23T10:43:55;95252.41;;;21.75;74.35
72409;BME280;60402;48.082;11.628;2023-05-23T10:46:51;95254.47;;;21.86;74.33
72409;BME280;60402;48.082;11.628;2023-05-23T10:49:45;95267.81;;;21.72;73.71
72409;BME280;60402;48.082;11.628;2023-05-23T10:52:38;95255.78;;;21.29;75.45
72409;BME280;60402;48.082;11.628;2023-05-23T10:55:25;95268.34;;;21.42;74.34
72409;BME280;60402;48.082;11.628;2023-05-23T10:58:17;95265.22;;;21.46;75.12
72409;BME280;60402;48.082;11.628;2023-05-23T11:01:06;95271.72;;;21.24;75.94
72409;BME280;60402;48.082;11.628;2023-05-23T11:03:53;95260.22;;;21.24;77.02
72409;BME280;60402;48.082;11.628;2023-05-23T11:06:43;95260.72;;;21.06;76.10
72409;BME280;60402;48.082;11.628;2023-05-23T11:09:29;95256.59;;;21.46;75.50
72409;BME280;60402;48.082;11.628;2023-05-23T11:12:15;95235.94;;;21.76;73.63
72409;BME280;60402;48.082;11.628;2023-05-23T11:15:00;95236.41;;;21.97;74.82
72409;BME280;60402;48.082;11.628;2023-05-23T11:20:36;95224.06;;;22.24;71.34
72409;BME280;60402;48.082;11.628;2023-05-23T11:23:22;95240.75;;;22.42;72.38
72409;BME280;60402;48.082;11.628;2023-05-23T11:26:30;95236.25;;;22.53;72.13
72409;BME280;60402;48.082;11.628;2023-05-23T11:29:16;95218.16;;;22.63;70.10
72409;BME280;60402;48.082;11.628;2023-05-23T11:32:09;95217.63;;;22.65;69.84
72409;BME280;60402;48.082;11.628;2023-05-23T11:35:04;95202.03;;;22.90;65.75
72409;BME280;60402;48.082;11.628;2023-05-23T11:37:51;95214.72;;;22.65;66.00
72409;BME280;60402;48.082;11.628;2023-05-23T11:40:43;95223.00;;;22.85;67.60
72409;BME280;60402;48.082;11.628;2023-05-23T11:43:29;95215.00;;;23.08;66.82
72409;BME280;60402;48.082;11.628;2023-05-23T11:46:15;95196.00;;;22.94;63.59
72409;BME280;60402;48.082;11.628;2023-05-23T11:49:01;95200.19;;;22.93;65.82
72409;BME280;60402;48.082;11.628;2023-05-23T11:51:46;95213.19;;;23.05;66.11
72409;BME280;60402;48.082;11.628;2023-05-23T11:54:32;95202.94;;;22.63;64.24
72409;BME280;60402;48.082;11.628;2023-05-23T11:57:18;95195.78;;;22.81;64.58
72409;BME280;60402;48.082;11.628;2023-05-23T12:00:07;95217.34;;;23.10;64.83
72409;BME280;60402;48.082;11.628;2023-05-23T12:02:53;95198.31;;;23.01;61.88
72409;BME280;60402;48.082;11.628;2023-05-23T12:05:42;95219.47;;;22.57;63.53
72409;BME280;60402;48.082;11.628;2023-05-23T12:08:29;95219.31;;;22.96;64.61
72409;BME280;60402;48.082;11.628;2023-05-23T12:11:15;95211.59;;;23.10;65.29
72409;BME280;60402;48.082;11.628;2023-05-23T12:14:00;95216.44;;;22.85;62.65
72409;BME280;60402;48.082;11.628;2023-05-23T12:16:51;95206.25;;;22.84;63.62
72409;BME280;60402;48.082;11.628;2023-05-23T12:19:37;95198.63;;;22.92;64.53
72409;BME280;60402;48.082;11.628;2023-05-23T12:22:23;95208.81;;;23.29;62.18
72409;BME280;60402;48.082;11.628;2023-05-23T12:25:09;95213.69;;;23.15;63.12
72409;BME280;60402;48.082;11.628;2023-05-23T12:27:55;95210.41;;;22.88;63.63
72409;BME280;60402;48.082;11.628;2023-05-23T12:30:41;95225.53;;;23.06;65.16
72409;BME280;60402;48.082;11.628;2023-05-23T12:33:27;95212.31;;;23.21;63.63
72409;BME280;60402;48.082;11.628;2023-05-23T12:36:14;95221.78;;;23.46;63.31
72409;BME280;60402;48.082;11.628;2023-05-23T12:39:05;95215.69;;;23.56;61.04
72409;BME280;60402;48.082;11.628;2023-05-23T12:41:51;95207.75;;;23.62;61.90
72409;BME280;60402;48.082;11.628;2023-05-23T12:44:39;95224.81;;;23.65;59.48
72409;BME280;60402;48.082;11.628;2023-05-23T12:47:25;95206.44;;;23.33;61.44
72409;BME280;60402;48.082;11.628;2023-05-23T12:50:11;95214.69;;;23.47;63.04
72409;BME280;60402;48.082;11.628;2023-05-23T12:52:58;95211.69;;;23.34;62.68
72409;BME280;60402;48.082;11.628;2023-05-23T12:55:43;95212.50;;;22.93;65.12
72409;BME280;60402;48.082;11.628;2023-05-23T12:58:29;95205.41;;;22.94;64.62
72409;BME280;60402;48.082;11.628;2023-05-23T13:01:15;95217.31;;;22.74;66.09
72409;BME280;60402;48.082;11.628;2023-05-23T13:04:01;95221.31;;;22.60;67.01
72409;BME280;60402;48.082;11.628;2023-05-23T13:06:46;95224.53;;;22.45;67.52
72409;BME280;60402;48.082;11.628;2023-05-23T13:09:32;95209.66;;;22.24;67.90
72409;BME280;60402;48.082;11.628;2023-05-23T13:12:18;95197.06;;;22.38;67.46
72409;BME280;60402;48.082;11.628;2023-05-23T13:15:04;95207.84;;;22.79;66.24
72409;BME280;60402;48.082;11.628;2023-05-23T13:17:50;95191.56;;;22.87;66.00
72409;BME280;60402;48.082;11.628;2023-05-23T13:20:36;95196.13;;;23.13;64.57
72409;BME280;60402;48.082;11.628;2023-05-23T13:23:22;95201.31;;;22.79;64.48
72409;BME280;60402;48.082;11.628;2023-05-23T13:26:09;95205.34;;;22.59;64.91
72409;BME280;60402;48.082;11.628;2023-05-23T13:28:54;95207.34;;;22.17;65.91
72409;BME280;60402;48.082;11.628;2023-05-23T13:31:40;95206.56;;;22.16;66.48
72409;BME280;60402;48.082;11.628;2023-05-23T13:34:26;95211.09;;;22.53;66.34
72409;BME280;60402;48.082;11.628;2023-05-23T13:37:13;95199.09;;;22.55;63.73
72409;BME280;60402;48.082;11.628;2023-05-23T13:40:01;95199.09;;;22.55;63.39
72409;BME280;60402;48.082;11.628;2023-05-23T13:42:48;95195.97;;;22.47;64.35
72409;BME280;60402;48.082;11.628;2023-05-23T13:45:35;95198.78;;;22.58;65.09
72409;BME280;60402;48.082;11.628;2023-05-23T13:48:21;95214.34;;;22.33;65.62
72409;BME280;60402;48.082;11.628;2023-05-23T13:51:07;95193.44;;;22.27;64.82
72409;BME280;60402;48.082;11.628;2023-05-23T13:53:52;95238.69;;;22.32;63.55
72409;BME280;60402;48.082;11.628;2023-05-23T13:56:38;95234.28;;;22.19;67.70
72409;BME280;60402;48.082;11.628;2023-05-23T13:59:27;95227.28;;;21.81;69.23
72409;BME280;60402;48.082;11.628;2023-05-23T14:02:13;95231.47;;;21.18;72.27
72409;BME280;60402;48.082;11.628;2023-05-23T14:04:59;95218.63;;;20.80;74.42
72409;BME280;60402;48.082;11.628;2023-05-23T14:07:45;95203.50;;;20.80;75.09
72409;BME280;60402;48.082;11.628;2023-05-23T14:10:31;95217.81;;;20.74;75.96
72409;BME280;60402;48.082;11.628;2023-05-23T14:13:19;95208.53;;;20.31;77.26
72409;BME280;60402;48.082;11.628;2023-05-23T14:16:06;95215.28;;;19.74;79.64
72409;BME280;60402;48.082;11.628;2023-05-23T14:18:51;95231.78;;;19.90;79.70
72409;BME280;60402;48.082;11.628;2023-05-23T14:21:37;95229.88;;;19.76;80.43
72409;BME280;60402;48.082;11.628;2023-05-23T14:24:23;95233.81;;;19.78;80.25
72409;BME280;60402;48.082;11.628;2023-05-23T14:27:08;95213.94;;;19.63;81.20
72409;BME280;60402;48.082;11.628;2023-05-23T14:29:54;95216.16;;;19.48;82.28
72409;BME280;60402;48.082;11.628;2023-05-23T14:32:40;95214.78;;;19.75;82.02
72409;BME280;60402;48.082;11.628;2023-05-23T14:35:25;95200.91;;;19.62;81.70
72409;BME280;60402;48.082;11.628;2023-05-23T14:38:11;95223.03;;;19.30;84.57
72409;BME280;60402;48.082;11.628;2023-05-23T14:40:57;95213.53;;;19.13;84.75
72409;BME280;60402;48.082;11.628;2023-05-23T14:43:44;95210.09;;;19.72;82.56
72409;BME280;60402;48.082;11.628;2023-05-23T14:46:29;95214.00;;;19.75;82.73
72409;BME280;60402;48.082;11.628;2023-05-23T14:49:16;95229.81;;;20.07;81.01